createdAt,value
2018-08-25T00:00:01.333Z,14.60
2018-08-25T00:02:29.773Z,14.60
2018-08-25T00:04:58.188Z,14.60
2018-08-25T00:07:26.684Z,14.60
2018-08-25T00:09:55.134Z,14.50
2018-08-25T00:12:23.577Z,14.50
2018-08-25T00:14:52.005Z,14.50
2018-08-25T00:17:20.525Z,14.50
2018-08-25T00:19:48.953Z,14.50
2018-08-25T00:22:17.407Z,14.50
2018-08-25T00:24:46.064Z,14.30
2018-08-25T00:27:14.544Z,14.30
2018-08-25T00:29:42.953Z,14.10
2018-08-25T00:32:11.401Z,14.00
2018-08-25T00:34:39.811Z,14.10
2018-08-25T00:37:08.264Z,14.10
2018-08-25T00:39:36.681Z,14.20
2018-08-25T00:42:05.134Z,14.10
2018-08-25T00:44:33.593Z,14.10
2018-08-25T00:47:02.064Z,14.10
2018-08-25T00:49:30.509Z,14.20
2018-08-25T00:51:58.969Z,14.20
2018-08-25T00:54:27.437Z,14.20
2018-08-25T00:56:55.895Z,14.20
2018-08-25T00:59:24.769Z,14.20
2018-08-25T01:01:53.236Z,14.20
2018-08-25T01:04:21.753Z,14.20
2018-08-25T01:06:50.185Z,14.30
2018-08-25T01:09:18.652Z,14.20
2018-08-25T01:11:47.072Z,14.20
2018-08-25T01:14:15.597Z,14.20
2018-08-25T01:16:44.053Z,14.20
2018-08-25T01:19:12.490Z,14.20
2018-08-25T01:21:40.942Z,14.20
2018-08-25T01:24:09.365Z,14.20
2018-08-25T01:26:37.806Z,14.20
2018-08-25T01:29:06.242Z,14.20
2018-08-25T01:31:34.681Z,14.20
2018-08-25T01:34:03.242Z,14.30
2018-08-25T01:36:31.703Z,14.20
2018-08-25T01:39:00.126Z,14.30
2018-08-25T01:41:28.553Z,14.30
2018-08-25T01:43:56.986Z,14.30
2018-08-25T01:46:25.434Z,14.30
2018-08-25T01:48:53.869Z,14.30
2018-08-25T01:51:22.281Z,14.30
2018-08-25T01:53:50.722Z,14.30
2018-08-25T01:56:19.156Z,14.30
2018-08-25T01:58:47.658Z,14.40
2018-08-25T02:01:16.081Z,14.40
2018-08-25T02:03:44.542Z,14.40
2018-08-25T02:06:12.969Z,14.40
2018-08-25T02:08:41.428Z,14.40
2018-08-25T02:11:09.866Z,14.40
2018-08-25T02:13:39.012Z,14.40
2018-08-25T02:16:07.517Z,14.10
2018-08-25T02:18:36.137Z,13.90
2018-08-25T02:21:04.657Z,13.70
2018-08-25T02:23:33.089Z,13.60
2018-08-25T02:26:01.509Z,13.50
2018-08-25T02:28:30.039Z,13.50
2018-08-25T02:30:58.469Z,13.40
2018-08-25T02:33:26.904Z,13.30
2018-08-25T02:35:55.347Z,13.20
2018-08-25T02:38:23.757Z,13.30
2018-08-25T02:40:52.204Z,13.30
2018-08-25T02:43:20.648Z,13.20
2018-08-25T02:45:49.171Z,13.10
2018-08-25T02:48:17.597Z,13.00
2018-08-25T02:50:46.039Z,13.00
2018-08-25T02:53:14.474Z,13.10
2018-08-25T02:55:42.917Z,13.10
2018-08-25T02:58:11.589Z,13.00
2018-08-25T03:00:40.310Z,13.00
2018-08-25T03:03:08.778Z,13.00
2018-08-25T03:05:37.202Z,13.00
2018-08-25T03:08:05.902Z,12.90
2018-08-25T03:10:34.460Z,12.80
2018-08-25T03:13:02.879Z,12.80
2018-08-25T03:15:32.289Z,12.60
2018-08-25T03:18:01.318Z,12.40
2018-08-25T03:20:29.763Z,12.10
2018-08-25T03:22:58.193Z,11.80
2018-08-25T03:25:26.619Z,11.70
2018-08-25T03:27:55.050Z,11.60
2018-08-25T03:30:23.487Z,11.40
2018-08-25T03:32:52.010Z,11.50
2018-08-25T03:35:20.445Z,11.50
2018-08-25T03:37:48.877Z,11.50
2018-08-25T03:40:17.389Z,11.40
2018-08-25T03:42:45.825Z,11.20
2018-08-25T03:45:14.305Z,11.30
2018-08-25T03:47:43.322Z,11.10
2018-08-25T03:50:11.767Z,11.10
2018-08-25T03:52:40.207Z,10.90
2018-08-25T03:55:09.650Z,10.90
2018-08-25T03:57:38.112Z,10.80
2018-08-25T04:00:07.099Z,10.70
2018-08-25T04:02:35.529Z,10.60
2018-08-25T04:05:04.637Z,10.50
2018-08-25T04:07:33.056Z,10.50
2018-08-25T04:10:01.622Z,10.50
2018-08-25T04:12:30.077Z,10.60
2018-08-25T04:14:58.519Z,10.60
2018-08-25T04:17:26.954Z,10.60
2018-08-25T04:19:55.403Z,10.50
2018-08-25T04:22:23.887Z,10.40
2018-08-25T04:24:52.334Z,10.40
2018-08-25T04:27:20.766Z,10.50
2018-08-25T04:29:49.217Z,10.60
2018-08-25T04:32:17.666Z,10.60
2018-08-25T04:34:46.163Z,10.60
2018-08-25T04:37:15.286Z,10.70
2018-08-25T04:39:44.341Z,10.80
2018-08-25T04:42:12.806Z,10.90
2018-08-25T04:44:41.231Z,10.80
2018-08-25T04:47:09.698Z,10.80
2018-08-25T04:49:38.126Z,10.70
2018-08-25T04:52:06.801Z,10.70
2018-08-25T04:54:35.253Z,10.70
2018-08-25T04:57:03.732Z,10.80
2018-08-25T04:59:32.157Z,11.00
2018-08-25T05:02:00.872Z,11.00
2018-08-25T05:04:29.226Z,11.10
2018-08-25T05:06:57.670Z,11.10
2018-08-25T05:09:26.124Z,11.00
2018-08-25T05:11:54.585Z,10.90
2018-08-25T05:14:23.036Z,10.90
2018-08-25T05:16:51.566Z,10.90
2018-08-25T05:19:20.037Z,10.90
2018-08-25T05:21:48.485Z,10.80
2018-08-25T05:24:16.921Z,10.80
2018-08-25T05:26:45.359Z,10.80
2018-08-25T05:29:13.793Z,10.80
2018-08-25T05:31:42.234Z,10.80
2018-08-25T05:34:10.682Z,10.80
2018-08-25T05:36:39.158Z,10.70
2018-08-25T05:39:09.217Z,10.80
2018-08-25T05:41:41.271Z,10.80
2018-08-25T05:44:11.999Z,10.80
2018-08-25T05:46:40.451Z,10.80
2018-08-25T05:49:08.892Z,10.90
2018-08-25T05:51:37.349Z,11.00
2018-08-25T05:54:05.813Z,10.90
2018-08-25T05:56:34.327Z,11.00
2018-08-25T05:59:02.778Z,11.00
2018-08-25T06:01:31.567Z,11.10
2018-08-25T06:03:59.981Z,11.40
2018-08-25T06:06:28.447Z,11.60
2018-08-25T06:08:57.560Z,11.60
2018-08-25T06:11:26.006Z,11.70
2018-08-25T06:13:54.485Z,11.90
2018-08-25T06:16:23.303Z,11.80
2018-08-25T06:18:51.734Z,12.10
2018-08-25T06:21:20.142Z,11.90
2018-08-25T06:23:48.608Z,11.80
2018-08-25T06:26:17.082Z,11.70
2018-08-25T06:28:45.518Z,11.80
2018-08-25T06:31:14.208Z,11.80
2018-08-25T06:33:42.673Z,11.80
2018-08-25T06:36:11.977Z,11.90
2018-08-25T06:38:40.424Z,12.00
2018-08-25T06:41:08.854Z,11.90
2018-08-25T06:43:37.399Z,12.10
2018-08-25T06:46:09.138Z,12.10
2018-08-25T06:48:39.439Z,12.00
2018-08-25T06:51:07.881Z,12.00
2018-08-25T06:53:36.704Z,12.40
2018-08-25T06:56:05.935Z,12.90
2018-08-25T06:58:34.374Z,13.30
2018-08-25T07:01:02.886Z,13.30
2018-08-25T07:03:31.318Z,13.40
2018-08-25T07:05:59.842Z,13.30
2018-08-25T07:08:28.230Z,13.20
2018-08-25T07:10:56.700Z,12.90
2018-08-25T07:13:25.145Z,12.80
2018-08-25T07:15:53.585Z,12.80
2018-08-25T07:18:22.038Z,12.80
2018-08-25T07:20:50.476Z,12.90
2018-08-25T07:23:18.920Z,13.40
2018-08-25T07:25:47.968Z,13.90
2018-08-25T07:28:16.364Z,13.90
2018-08-25T07:30:44.837Z,13.80
2018-08-25T07:33:13.327Z,14.40
2018-08-25T07:35:41.779Z,15.00
2018-08-25T07:38:11.490Z,14.30
2018-08-25T07:40:43.958Z,13.90
2018-08-25T07:43:14.838Z,13.40
2018-08-25T07:45:43.274Z,13.60
2018-08-25T07:48:11.734Z,13.40
2018-08-25T07:50:40.160Z,13.30
2018-08-25T07:53:08.601Z,13.20
2018-08-25T07:55:37.109Z,13.20
2018-08-25T07:58:05.870Z,13.00
2018-08-25T08:00:34.327Z,13.20
2018-08-25T08:03:02.772Z,13.50
2018-08-25T08:05:31.347Z,14.20
2018-08-25T08:07:59.738Z,14.70
2018-08-25T08:10:28.202Z,14.50
2018-08-25T08:12:56.652Z,14.40
2018-08-25T08:15:25.109Z,14.10
2018-08-25T08:17:53.573Z,14.10
2018-08-25T08:20:22.007Z,13.80
2018-08-25T08:22:50.452Z,13.90
2018-08-25T08:25:18.919Z,14.00
2018-08-25T08:27:47.321Z,13.90
2018-08-25T08:30:15.757Z,13.90
2018-08-25T08:32:44.205Z,14.00
2018-08-25T08:35:12.635Z,14.10
2018-08-25T08:37:41.111Z,14.30
2018-08-25T08:40:09.542Z,14.70
2018-08-25T08:42:38.430Z,14.70
2018-08-25T08:45:07.346Z,14.50
2018-08-25T08:47:36.196Z,14.30
2018-08-25T08:50:05.345Z,14.20
2018-08-25T08:52:33.773Z,14.20
2018-08-25T08:55:02.802Z,14.00
2018-08-25T08:57:31.245Z,14.20
2018-08-25T08:59:59.705Z,13.90
2018-08-25T09:02:28.197Z,13.70
2018-08-25T09:04:56.609Z,14.10
2018-08-25T09:07:25.038Z,14.10
2018-08-25T09:09:53.515Z,14.20
2018-08-25T09:12:21.957Z,14.50
2018-08-25T09:14:50.444Z,14.30
2018-08-25T09:17:18.897Z,14.30
2018-08-25T09:19:47.431Z,14.30
2018-08-25T09:22:15.963Z,14.30
2018-08-25T09:24:44.409Z,14.80
2018-08-25T09:27:12.937Z,14.90
2018-08-25T09:29:41.353Z,15.20
2018-08-25T09:32:09.807Z,16.10
2018-08-25T09:34:38.245Z,16.20
2018-08-25T09:37:06.685Z,15.80
2018-08-25T09:39:35.216Z,16.00
2018-08-25T09:42:03.870Z,16.40
2018-08-25T09:44:32.317Z,16.10
2018-08-25T09:47:00.799Z,16.50
2018-08-25T09:49:29.266Z,16.40
2018-08-25T09:51:57.702Z,15.90
2018-08-25T09:54:26.132Z,16.30
2018-08-25T09:56:54.600Z,16.20
2018-08-25T09:59:23.041Z,16.80
2018-08-25T10:01:56.843Z,16.90
2018-08-25T10:04:25.294Z,17.40
2018-08-25T10:06:54.006Z,17.40
2018-08-25T10:09:22.463Z,17.30
2018-08-25T10:11:50.966Z,16.90
2018-08-25T10:14:19.505Z,16.30
2018-08-25T10:16:48.021Z,15.60
2018-08-25T10:19:16.408Z,15.40
2018-08-25T10:21:44.828Z,15.60
2018-08-25T10:24:13.285Z,15.80
2018-08-25T10:26:41.707Z,16.20
2018-08-25T10:29:10.258Z,16.50
2018-08-25T10:31:38.766Z,16.50
2018-08-25T10:34:07.236Z,16.10
2018-08-25T10:36:35.681Z,15.70
2018-08-25T10:39:06.133Z,15.60
2018-08-25T10:41:34.577Z,15.90
2018-08-25T10:44:03.238Z,15.80
2018-08-25T10:46:31.710Z,15.60
2018-08-25T10:49:00.178Z,15.90
2018-08-25T10:51:28.849Z,16.10
2018-08-25T10:53:57.339Z,16.30
2018-08-25T10:56:25.750Z,16.60
2018-08-25T10:58:55.191Z,16.70
2018-08-25T11:01:23.710Z,16.90
2018-08-25T11:03:52.147Z,16.80
2018-08-25T11:06:20.601Z,16.80
2018-08-25T11:08:49.159Z,16.30
2018-08-25T11:11:17.577Z,16.10
2018-08-25T11:13:46.014Z,16.70
2018-08-25T11:16:14.449Z,17.20
2018-08-25T11:18:43.373Z,17.50
2018-08-25T11:21:11.886Z,18.00
2018-08-25T11:23:40.374Z,17.50
2018-08-25T11:26:08.820Z,17.60
2018-08-25T11:28:37.302Z,18.20
2018-08-25T11:31:05.815Z,18.70
2018-08-25T11:33:34.297Z,19.40
2018-08-25T11:36:03.154Z,20.00
2018-08-25T11:38:31.709Z,20.10
2018-08-25T11:41:00.166Z,19.70
2018-08-25T11:43:28.652Z,19.90
2018-08-25T11:45:57.101Z,19.30
2018-08-25T11:48:25.546Z,18.20
2018-08-25T11:50:54.045Z,17.60
2018-08-25T11:53:22.512Z,17.00
2018-08-25T11:55:50.938Z,16.60
2018-08-25T11:58:19.388Z,17.10
2018-08-25T12:00:47.866Z,18.20
2018-08-25T12:03:16.316Z,18.50
2018-08-25T12:05:44.773Z,19.10
2018-08-25T12:08:13.224Z,20.00
2018-08-25T12:10:41.665Z,19.30
2018-08-25T12:13:10.166Z,18.90
2018-08-25T12:15:38.693Z,19.40
2018-08-25T12:18:07.152Z,18.80
2018-08-25T12:20:35.608Z,18.20
2018-08-25T12:23:04.368Z,18.50
2018-08-25T12:25:32.809Z,18.60
2018-08-25T12:28:01.254Z,19.00
2018-08-25T12:30:29.735Z,18.80
2018-08-25T12:32:58.685Z,18.10
2018-08-25T12:35:27.162Z,17.90
2018-08-25T12:37:55.614Z,17.90
2018-08-25T12:40:24.098Z,18.90
2018-08-25T12:42:52.555Z,19.00
2018-08-25T12:45:21.003Z,19.40
2018-08-25T12:47:49.461Z,18.80
2018-08-25T12:50:17.927Z,18.50
2018-08-25T12:52:46.393Z,18.40
2018-08-25T12:55:14.879Z,18.40
2018-08-25T12:57:43.362Z,18.90
2018-08-25T13:00:11.845Z,19.10
2018-08-25T13:02:40.388Z,18.70
2018-08-25T13:05:08.847Z,19.40
2018-08-25T13:07:38.412Z,19.50
2018-08-25T13:10:07.084Z,18.60
2018-08-25T13:12:35.585Z,19.00
2018-08-25T13:15:04.163Z,18.80
2018-08-25T13:17:32.696Z,19.10
2018-08-25T13:20:01.167Z,18.80
2018-08-25T13:22:29.628Z,18.70
2018-08-25T13:24:58.184Z,18.30
2018-08-25T13:27:26.808Z,18.70
2018-08-25T13:29:55.325Z,18.10
2018-08-25T13:32:23.774Z,18.80
2018-08-25T13:34:52.345Z,18.70
2018-08-25T13:37:20.769Z,18.50
2018-08-25T13:39:49.443Z,18.50
2018-08-25T13:42:18.000Z,18.30
2018-08-25T13:44:46.987Z,18.00
2018-08-25T13:47:15.477Z,16.50
2018-08-25T13:49:43.957Z,16.20
2018-08-25T13:52:12.545Z,15.60
2018-08-25T13:54:41.870Z,15.10
2018-08-25T13:57:10.333Z,15.00
2018-08-25T13:59:38.788Z,15.10
2018-08-25T14:02:07.665Z,15.10
2018-08-25T14:04:36.135Z,14.80
2018-08-25T14:07:04.677Z,14.70
2018-08-25T14:09:33.118Z,14.70
2018-08-25T14:12:01.590Z,14.40
2018-08-25T14:14:30.046Z,14.50
2018-08-25T14:16:59.233Z,14.30
2018-08-25T14:19:27.690Z,14.20
2018-08-25T14:21:56.530Z,14.50
2018-08-25T14:24:25.026Z,14.70
2018-08-25T14:26:53.509Z,14.90
2018-08-25T14:29:21.986Z,15.00
2018-08-25T14:31:50.461Z,15.10
2018-08-25T14:34:18.917Z,14.90
2018-08-25T14:36:47.421Z,15.30
2018-08-25T14:39:15.902Z,15.50
2018-08-25T14:41:44.606Z,15.30
2018-08-25T14:44:13.083Z,15.30
2018-08-25T14:46:41.516Z,15.20
2018-08-25T14:49:09.970Z,15.40
2018-08-25T14:51:38.442Z,15.80
2018-08-25T14:54:06.985Z,15.20
2018-08-25T14:56:35.453Z,14.40
2018-08-25T14:59:03.981Z,13.90
2018-08-25T15:01:32.441Z,13.20
2018-08-25T15:04:01.088Z,13.50
2018-08-25T15:06:29.506Z,12.40
2018-08-25T15:08:57.960Z,13.10
2018-08-25T15:11:26.442Z,13.20
2018-08-25T15:13:54.864Z,13.80
2018-08-25T15:16:23.361Z,14.10
2018-08-25T15:18:52.689Z,13.70
2018-08-25T15:21:21.127Z,14.10
2018-08-25T15:23:49.559Z,14.00
2018-08-25T15:26:18.079Z,14.30
2018-08-25T15:28:46.504Z,14.40
2018-08-25T15:31:15.015Z,14.40
2018-08-25T15:33:43.518Z,14.30
2018-08-25T15:36:12.034Z,14.20
2018-08-25T15:38:40.473Z,14.30
2018-08-25T15:41:08.970Z,14.30
2018-08-25T15:43:37.478Z,14.60
2018-08-25T15:46:06.643Z,14.50
2018-08-25T15:48:35.113Z,14.90
2018-08-25T15:51:03.544Z,15.00
2018-08-25T15:53:32.020Z,14.70
2018-08-25T15:56:00.485Z,14.70
2018-08-25T15:58:28.946Z,14.70
2018-08-25T16:00:57.421Z,14.70
2018-08-25T16:03:25.905Z,14.90
2018-08-25T16:05:54.360Z,14.90
2018-08-25T16:08:22.838Z,15.00
2018-08-25T16:10:51.317Z,15.10
2018-08-25T16:13:19.976Z,15.40
2018-08-25T16:15:49.010Z,15.80
2018-08-25T16:18:17.459Z,15.40
2018-08-25T16:20:45.898Z,15.50
2018-08-25T16:23:14.351Z,15.30
2018-08-25T16:25:42.798Z,15.00
2018-08-25T16:28:11.939Z,14.90
2018-08-25T16:30:40.430Z,14.90
2018-08-25T16:33:08.881Z,14.90
2018-08-25T16:35:37.341Z,14.90
2018-08-25T16:38:05.856Z,14.90
2018-08-25T16:40:34.442Z,15.20
2018-08-25T16:43:02.965Z,15.30
2018-08-25T16:45:31.422Z,15.20
2018-08-25T16:47:59.849Z,15.20
2018-08-25T16:50:28.343Z,14.80
2018-08-25T16:52:56.773Z,14.80
2018-08-25T16:55:25.271Z,14.60
2018-08-25T16:57:54.462Z,14.20
2018-08-25T17:00:22.885Z,14.10
2018-08-25T17:02:51.353Z,14.20
2018-08-25T17:05:20.053Z,14.10
2018-08-25T17:07:48.796Z,14.00
2018-08-25T17:10:17.246Z,14.00
2018-08-25T17:12:45.744Z,14.00
2018-08-25T17:15:14.595Z,13.90
2018-08-25T17:17:43.085Z,13.80
2018-08-25T17:20:11.562Z,13.90
2018-08-25T17:22:40.054Z,13.70
2018-08-25T17:25:08.573Z,13.80
2018-08-25T17:27:37.034Z,13.70
2018-08-25T17:30:06.297Z,13.70
2018-08-25T17:32:34.794Z,13.70
2018-08-25T17:35:03.553Z,13.70
2018-08-25T17:37:32.002Z,13.70
2018-08-25T17:40:00.594Z,13.70
2018-08-25T17:42:29.469Z,13.70
2018-08-25T17:44:58.820Z,13.80
2018-08-25T17:47:27.300Z,13.90
2018-08-25T17:49:55.790Z,13.70
2018-08-25T17:52:24.257Z,13.70
2018-08-25T17:54:52.721Z,13.60
2018-08-25T17:57:21.255Z,13.70
2018-08-25T17:59:49.658Z,13.60
2018-08-25T18:02:18.130Z,13.60
2018-08-25T18:04:46.619Z,13.50
2018-08-25T18:07:15.084Z,13.40
2018-08-25T18:09:43.543Z,13.40
2018-08-25T18:12:12.029Z,13.30
2018-08-25T18:14:41.113Z,13.30
2018-08-25T18:17:10.484Z,13.30
2018-08-25T18:19:39.199Z,13.20
2018-08-25T18:22:07.677Z,13.10
2018-08-25T18:24:36.166Z,13.10
2018-08-25T18:27:04.790Z,13.10
2018-08-25T18:29:33.273Z,12.90
2018-08-25T18:32:01.918Z,12.90
2018-08-25T18:34:30.340Z,13.00
2018-08-25T18:36:58.918Z,13.00
2018-08-25T18:39:27.386Z,13.00
2018-08-25T18:41:55.902Z,12.90
2018-08-25T18:44:24.396Z,12.80
2018-08-25T18:46:52.869Z,12.60
2018-08-25T18:49:22.107Z,12.60
2018-08-25T18:51:50.825Z,12.50
2018-08-25T18:54:19.337Z,12.40
2018-08-25T18:56:47.885Z,12.40
2018-08-25T18:59:16.469Z,12.30
2018-08-25T19:01:44.955Z,12.30
2018-08-25T19:04:13.486Z,12.40
2018-08-25T19:06:41.968Z,12.30
2018-08-25T19:09:10.521Z,12.30
2018-08-25T19:11:39.075Z,12.20
2018-08-25T19:14:07.616Z,12.00
2018-08-25T19:16:36.081Z,12.00
2018-08-25T19:19:04.528Z,12.00
2018-08-25T19:21:33.008Z,12.00
2018-08-25T19:24:01.559Z,12.00
2018-08-25T19:26:30.076Z,11.90
2018-08-25T19:28:58.561Z,11.80
2018-08-25T19:31:27.105Z,11.80
2018-08-25T19:33:55.625Z,11.80
2018-08-25T19:36:24.117Z,11.80
2018-08-25T19:38:52.606Z,11.70
2018-08-25T19:41:21.201Z,11.60
2018-08-25T19:43:49.677Z,11.60
2018-08-25T19:46:18.186Z,11.50
2018-08-25T19:48:47.381Z,11.50
2018-08-25T19:51:15.895Z,11.50
2018-08-25T19:53:44.350Z,11.50
2018-08-25T19:56:12.839Z,11.60
2018-08-25T19:58:41.417Z,11.50
2018-08-25T20:01:09.871Z,11.60
2018-08-25T20:03:44.893Z,11.60
2018-08-25T20:06:13.511Z,11.70
2018-08-25T20:08:41.974Z,11.70
2018-08-25T20:11:10.655Z,11.70
2018-08-25T20:13:39.238Z,11.70
2018-08-25T20:16:07.706Z,11.70
2018-08-25T20:18:36.196Z,11.80
2018-08-25T20:21:04.967Z,11.80
2018-08-25T20:23:33.372Z,11.70
2018-08-25T20:26:01.829Z,11.70
2018-08-25T20:28:30.897Z,11.80
2018-08-25T20:30:59.326Z,11.70
2018-08-25T20:33:27.761Z,11.70
2018-08-25T20:35:56.345Z,11.60
2018-08-25T20:38:24.814Z,11.40
2018-08-25T20:40:53.290Z,11.40
2018-08-25T20:43:21.788Z,11.30
2018-08-25T20:45:50.382Z,11.30
2018-08-25T20:48:18.782Z,11.40
2018-08-25T20:50:47.246Z,11.40
2018-08-25T20:53:15.741Z,11.40
2018-08-25T20:55:44.174Z,11.40
2018-08-25T20:58:12.689Z,11.40
2018-08-25T21:00:41.717Z,11.40
2018-08-25T21:03:10.157Z,11.40
2018-08-25T21:05:38.602Z,11.40
2018-08-25T21:08:07.050Z,11.50
2018-08-25T21:10:35.527Z,11.40
2018-08-25T21:13:04.054Z,11.30
2018-08-25T21:15:32.629Z,11.20
2018-08-25T21:18:01.096Z,11.20
2018-08-25T21:20:29.553Z,11.10
2018-08-25T21:22:58.071Z,11.00
2018-08-25T21:25:26.501Z,10.90
2018-08-25T21:27:54.963Z,10.90
2018-08-25T21:30:23.385Z,10.80
2018-08-25T21:32:51.847Z,10.70
2018-08-25T21:35:20.301Z,10.60
2018-08-25T21:37:48.768Z,10.60
2018-08-25T21:40:17.210Z,10.50
2018-08-25T21:42:45.680Z,10.50
2018-08-25T21:45:14.108Z,10.50
2018-08-25T21:47:42.533Z,10.50
2018-08-25T21:50:11.095Z,10.50
2018-08-25T21:52:46.033Z,10.50
2018-08-25T21:55:14.574Z,10.60
2018-08-25T21:57:43.029Z,10.50
2018-08-25T22:00:18.014Z,10.40
2018-08-25T22:02:46.438Z,10.40
2018-08-25T22:05:14.881Z,10.40
2018-08-25T22:07:43.310Z,10.30
2018-08-25T22:10:11.770Z,10.30
2018-08-25T22:12:40.213Z,10.30
2018-08-25T22:15:08.656Z,10.20
2018-08-25T22:17:37.109Z,10.20
2018-08-25T22:20:07.243Z,10.20
2018-08-25T22:22:35.886Z,10.10
2018-08-25T22:25:04.462Z,10.10
2018-08-25T22:27:32.956Z,10.00
2018-08-25T22:30:01.389Z,10.00
2018-08-25T22:32:29.879Z,10.00
2018-08-25T22:34:58.317Z,10.00
2018-08-25T22:37:26.752Z,10.00
2018-08-25T22:39:55.245Z,10.00
2018-08-25T22:42:23.682Z,10.00
2018-08-25T22:44:52.246Z,9.90
2018-08-25T22:47:20.686Z,9.90
2018-08-25T22:49:49.139Z,9.90
2018-08-25T22:52:21.693Z,10.00
2018-08-25T22:54:50.165Z,10.00
2018-08-25T22:57:18.680Z,10.00
2018-08-25T22:59:47.104Z,10.10
2018-08-25T23:02:17.693Z,10.10
2018-08-25T23:04:46.129Z,10.00
2018-08-25T23:07:14.822Z,10.00
2018-08-25T23:09:43.245Z,10.00
2018-08-25T23:12:11.699Z,9.90
2018-08-25T23:14:40.186Z,10.10
2018-08-25T23:17:08.650Z,10.00
2018-08-25T23:19:37.110Z,9.90
2018-08-25T23:22:05.586Z,9.80
2018-08-25T23:24:34.000Z,9.70
2018-08-25T23:27:02.480Z,9.70
2018-08-25T23:29:30.942Z,9.50
2018-08-25T23:31:59.408Z,9.50
2018-08-25T23:34:27.818Z,9.50
2018-08-25T23:36:56.246Z,9.50
2018-08-25T23:39:24.712Z,9.40
2018-08-25T23:41:53.145Z,9.40
2018-08-25T23:44:21.580Z,9.40
2018-08-25T23:46:50.006Z,9.50
2018-08-25T23:49:18.479Z,9.50
2018-08-25T23:51:47.145Z,9.50
2018-08-25T23:54:15.570Z,9.60
2018-08-25T23:56:44.131Z,9.50
2018-08-25T23:59:12.789Z,9.50
